Hauptseite
METAR-TAF:

METAR-TAF

Flughäfen :

Flughafen Bamako

Bamako, Mali

Breite: 12-32N, Länge: 007-57W, Höhe: 380 m

Beobachtung

Neuester Wetterbericht von vor 42 Minuten, um 10:30 UTC
Wind 3 kt aus Nord/Nordost
Temperatur 25°C
Luftfeuchtigkeit 9%
Luftdruck 1019 hPa
Sichtweite 10 km oder mehr
keine Wolken unter 1500 m und keine Kumulonimbus oder Gewitterwolken

METAR: GABS 221030Z 03003KT CAVOK 25/M10 Q1019 NOSIG

Zeit: 11:12 (11:12 UTC)

Prognose

Neuester Wetterbericht von vor 6 Stunden und 12 Minuten, um 05:00 UTC
Gültige Prognose vom 22 um 06 UTC bis 23 um 12 UTC
Wind 8 kt aus Nord/Nordost
Sichtweite: 8000 m

TAF: GABS 220500Z 2206/2312 02008KT 8000 NSC

Wetterbeobachtungen und Prognosen von mehr als 4000 Flughäfen (METAR und TAF Bericht).

Die verfügbaren Stationen werden durch gelbe und rote Markierungen auf der Karte dargestellt.

Führen Sie die Maus auf sie, um den Namen der Station zu sehen.

Darauf klicken, um die Beobachtung von Wetterbeobachtungen und Prognosen zu sehen.

Um die Karte zu ändern : klicken Sie auf den grünen Tasten mit einem schwarzen Kreuz Zum Vergrößern, auf den grünen Button mit einem Gedankenstrich zu verkleinern, oder auf die grünen Pfeile für benachbarte Karten.


METAR-TAF: